sensor_id;sensor_type;location;lat;lon;timestamp;pressure;altitude;pressure_sealevel;temperature;humidity
14204;BME280;7185;51.854;6.622;2023-02-26T00:01:29;101491.06;;;2.25;85.60
14204;BME280;7185;51.854;6.622;2023-02-26T00:04:02;101495.41;;;2.26;84.90
14204;BME280;7185;51.854;6.622;2023-02-26T00:06:37;101487.66;;;2.26;84.75
14204;BME280;7185;51.854;6.622;2023-02-26T00:09:23;101504.91;;;2.25;84.29
14204;BME280;7185;51.854;6.622;2023-02-26T00:11:55;101514.34;;;2.25;84.35
14204;BME280;7185;51.854;6.622;2023-02-26T00:14:27;101515.81;;;2.16;84.80
14204;BME280;7185;51.854;6.622;2023-02-26T00:17:14;101528.88;;;2.19;84.86
14204;BME280;7185;51.854;6.622;2023-02-26T00:19:50;101530.56;;;2.19;85.69
14204;BME280;7185;51.854;6.622;2023-02-26T00:22:23;101524.84;;;2.29;85.22
14204;BME280;7185;51.854;6.622;2023-02-26T00:24:56;101527.59;;;2.06;85.83
14204;BME280;7185;51.854;6.622;2023-02-26T00:27:27;101528.69;;;2.13;85.48
14204;BME280;7185;51.854;6.622;2023-02-26T00:29:59;101522.56;;;2.11;84.40
14204;BME280;7185;51.854;6.622;2023-02-26T00:32:32;101525.97;;;2.10;84.52
14204;BME280;7185;51.854;6.622;2023-02-26T00:35:06;101522.84;;;2.20;83.86
14204;BME280;7185;51.854;6.622;2023-02-26T00:37:51;101532.91;;;2.11;84.18
14204;BME280;7185;51.854;6.622;2023-02-26T00:40:34;101537.91;;;2.05;84.99
14204;BME280;7185;51.854;6.622;2023-02-26T00:43:08;101536.56;;;1.90;85.27
14204;BME280;7185;51.854;6.622;2023-02-26T00:45:44;101534.63;;;1.83;86.04
14204;BME280;7185;51.854;6.622;2023-02-26T00:48:37;101541.28;;;1.77;86.32
14204;BME280;7185;51.854;6.622;2023-02-26T00:51:18;101549.72;;;1.71;87.28
14204;BME280;7185;51.854;6.622;2023-02-26T00:53:58;101548.91;;;1.72;87.24
14204;BME280;7185;51.854;6.622;2023-02-26T00:59:08;101547.97;;;1.70;87.42
14204;BME280;7185;51.854;6.622;2023-02-26T01:01:39;101541.03;;;1.69;88.16
14204;BME280;7185;51.854;6.622;2023-02-26T01:04:12;101544.66;;;1.74;87.67
14204;BME280;7185;51.854;6.622;2023-02-26T01:06:46;101549.78;;;1.72;87.71
14204;BME280;7185;51.854;6.622;2023-02-26T01:09:22;101550.59;;;1.71;87.69
14204;BME280;7185;51.854;6.622;2023-02-26T01:11:55;101556.88;;;1.78;87.24
14204;BME280;7185;51.854;6.622;2023-02-26T01:14:30;101555.41;;;1.86;86.96
14204;BME280;7185;51.854;6.622;2023-02-26T01:17:07;101564.66;;;1.80;87.59
14204;BME280;7185;51.854;6.622;2023-02-26T01:19:45;101560.78;;;1.67;88.44
14204;BME280;7185;51.854;6.622;2023-02-26T01:22:21;101563.28;;;1.64;87.64
14204;BME280;7185;51.854;6.622;2023-02-26T01:24:55;101570.00;;;1.58;88.62
14204;BME280;7185;51.854;6.622;2023-02-26T01:27:30;101575.06;;;1.55;87.81
14204;BME280;7185;51.854;6.622;2023-02-26T01:30:05;101572.31;;;1.51;88.15
14204;BME280;7185;51.854;6.622;2023-02-26T01:32:42;101583.63;;;1.54;88.29
14204;BME280;7185;51.854;6.622;2023-02-26T01:35:23;101575.56;;;1.45;88.64
14204;BME280;7185;51.854;6.622;2023-02-26T01:38:03;101572.09;;;1.45;89.28
14204;BME280;7185;51.854;6.622;2023-02-26T01:43:45;101585.06;;;1.22;90.29
14204;BME280;7185;51.854;6.622;2023-02-26T01:46:28;101581.41;;;1.15;90.83
14204;BME280;7185;51.854;6.622;2023-02-26T01:49:03;101586.03;;;1.24;90.50
14204;BME280;7185;51.854;6.622;2023-02-26T01:51:44;101585.81;;;1.18;90.63
14204;BME280;7185;51.854;6.622;2023-02-26T01:54:18;101594.34;;;1.15;90.55
14204;BME280;7185;51.854;6.622;2023-02-26T01:56:54;101595.84;;;1.10;91.09
14204;BME280;7185;51.854;6.622;2023-02-26T01:59:26;101603.03;;;0.94;91.98
14204;BME280;7185;51.854;6.622;2023-02-26T02:02:01;101597.16;;;0.99;91.96
14204;BME280;7185;51.854;6.622;2023-02-26T02:04:34;101602.28;;;0.97;91.58
14204;BME280;7185;51.854;6.622;2023-02-26T02:07:07;101604.63;;;0.91;91.86
14204;BME280;7185;51.854;6.622;2023-02-26T02:09:39;101605.63;;;0.94;91.66
14204;BME280;7185;51.854;6.622;2023-02-26T02:12:23;101612.31;;;0.89;91.67
14204;BME280;7185;51.854;6.622;2023-02-26T02:15:07;101617.91;;;0.77;92.23
14204;BME280;7185;51.854;6.622;2023-02-26T02:17:49;101625.69;;;0.79;92.07
14204;BME280;7185;51.854;6.622;2023-02-26T02:20:34;101620.41;;;0.76;92.56
14204;BME280;7185;51.854;6.622;2023-02-26T02:23:16;101613.03;;;0.85;92.21
14204;BME280;7185;51.854;6.622;2023-02-26T02:26:09;101620.63;;;0.82;91.45
14204;BME280;7185;51.854;6.622;2023-02-26T02:31:45;101629.09;;;0.78;91.59
14204;BME280;7185;51.854;6.622;2023-02-26T02:34:23;101623.94;;;0.78;91.57
14204;BME280;7185;51.854;6.622;2023-02-26T02:36:58;101635.78;;;0.73;91.92
14204;BME280;7185;51.854;6.622;2023-02-26T02:39:33;101642.34;;;0.65;92.05
14204;BME280;7185;51.854;6.622;2023-02-26T02:42:18;101651.63;;;0.59;91.99
14204;BME280;7185;51.854;6.622;2023-02-26T02:44:55;101647.91;;;0.53;92.38
14204;BME280;7185;51.854;6.622;2023-02-26T02:47:31;101655.13;;;0.61;92.30
14204;BME280;7185;51.854;6.622;2023-02-26T02:50:06;101661.09;;;0.60;91.70
14204;BME280;7185;51.854;6.622;2023-02-26T02:52:42;101659.81;;;0.49;91.75
14204;BME280;7185;51.854;6.622;2023-02-26T02:55:19;101653.63;;;0.45;92.12
14204;BME280;7185;51.854;6.622;2023-02-26T02:57:52;101658.84;;;0.47;92.30
14204;BME280;7185;51.854;6.622;2023-02-26T03:00:27;101658.28;;;0.54;92.14
14204;BME280;7185;51.854;6.622;2023-02-26T03:03:06;101660.50;;;0.45;91.86
14204;BME280;7185;51.854;6.622;2023-02-26T03:05:41;101664.22;;;0.52;91.83
14204;BME280;7185;51.854;6.622;2023-02-26T03:08:15;101664.72;;;0.43;91.32
14204;BME280;7185;51.854;6.622;2023-02-26T03:10:47;101663.91;;;0.44;91.63
14204;BME280;7185;51.854;6.622;2023-02-26T03:13:21;101664.81;;;0.46;91.49
14204;BME280;7185;51.854;6.622;2023-02-26T03:16:01;101661.84;;;0.35;90.97
14204;BME280;7185;51.854;6.622;2023-02-26T03:18:48;101670.44;;;0.36;90.50
14204;BME280;7185;51.854;6.622;2023-02-26T03:21:27;101673.59;;;0.28;90.88
14204;BME280;7185;51.854;6.622;2023-02-26T03:24:06;101679.38;;;0.23;90.34
14204;BME280;7185;51.854;6.622;2023-02-26T03:26:43;101681.34;;;0.28;89.91
14204;BME280;7185;51.854;6.622;2023-02-26T03:29:18;101685.69;;;0.29;90.15
14204;BME280;7185;51.854;6.622;2023-02-26T03:31:54;101687.06;;;0.21;90.03
14204;BME280;7185;51.854;6.622;2023-02-26T03:34:33;101694.78;;;0.21;89.55
14204;BME280;7185;51.854;6.622;2023-02-26T03:37:13;101698.19;;;0.20;89.96
14204;BME280;7185;51.854;6.622;2023-02-26T03:39:50;101704.59;;;0.09;90.26
14204;BME280;7185;51.854;6.622;2023-02-26T03:42:27;101712.34;;;0.09;90.55
14204;BME280;7185;51.854;6.622;2023-02-26T03:45:04;101714.56;;;0.01;90.35
14204;BME280;7185;51.854;6.622;2023-02-26T03:47:38;101716.53;;;0.07;90.27
14204;BME280;7185;51.854;6.622;2023-02-26T03:50:16;101723.31;;;0.05;90.66
14204;BME280;7185;51.854;6.622;2023-02-26T03:52:52;101719.41;;;-0.07;90.66
14204;BME280;7185;51.854;6.622;2023-02-26T03:55:27;101718.59;;;-0.06;91.13
14204;BME280;7185;51.854;6.622;2023-02-26T03:58:01;101718.41;;;-0.10;91.18
14204;BME280;7185;51.854;6.622;2023-02-26T04:00:35;101718.06;;;-0.18;91.60
14204;BME280;7185;51.854;6.622;2023-02-26T04:03:11;101724.16;;;-0.16;91.65
14204;BME280;7185;51.854;6.622;2023-02-26T04:05:48;101737.13;;;-0.14;90.88
14204;BME280;7185;51.854;6.622;2023-02-26T04:08:21;101740.44;;;-0.17;90.85
14204;BME280;7185;51.854;6.622;2023-02-26T04:10:55;101744.94;;;-0.13;91.12
14204;BME280;7185;51.854;6.622;2023-02-26T04:13:28;101747.50;;;-0.13;90.36
14204;BME280;7185;51.854;6.622;2023-02-26T04:15:59;101757.66;;;-0.16;90.53
14204;BME280;7185;51.854;6.622;2023-02-26T04:18:31;101759.44;;;-0.15;90.63
14204;BME280;7185;51.854;6.622;2023-02-26T04:21:04;101758.56;;;-0.15;90.72
14204;BME280;7185;51.854;6.622;2023-02-26T04:23:36;101764.59;;;-0.15;90.75
14204;BME280;7185;51.854;6.622;2023-02-26T04:26:07;101757.81;;;-0.13;90.29
14204;BME280;7185;51.854;6.622;2023-02-26T04:28:39;101761.81;;;-0.20;90.54
14204;BME280;7185;51.854;6.622;2023-02-26T04:31:11;101758.56;;;-0.15;90.54
14204;BME280;7185;51.854;6.622;2023-02-26T04:33:43;101762.28;;;-0.28;90.35
14204;BME280;7185;51.854;6.622;2023-02-26T04:36:16;101765.41;;;-0.36;90.10
14204;BME280;7185;51.854;6.622;2023-02-26T04:38:48;101771.16;;;-0.41;90.60
14204;BME280;7185;51.854;6.622;2023-02-26T04:41:19;101774.84;;;-0.36;90.25
14204;BME280;7185;51.854;6.622;2023-02-26T04:43:51;101786.41;;;-0.46;90.54
14204;BME280;7185;51.854;6.622;2023-02-26T04:46:22;101775.75;;;-0.34;90.76
14204;BME280;7185;51.854;6.622;2023-02-26T04:48:54;101787.63;;;-0.38;89.41
14204;BME280;7185;51.854;6.622;2023-02-26T04:51:27;101794.56;;;-0.37;90.44
14204;BME280;7185;51.854;6.622;2023-02-26T04:53:58;101801.47;;;-0.36;90.32
14204;BME280;7185;51.854;6.622;2023-02-26T04:56:30;101794.28;;;-0.43;89.85
14204;BME280;7185;51.854;6.622;2023-02-26T04:59:02;101800.50;;;-0.38;89.92
14204;BME280;7185;51.854;6.622;2023-02-26T05:01:34;101802.28;;;-0.37;90.29
14204;BME280;7185;51.854;6.622;2023-02-26T05:04:06;101815.03;;;-0.40;88.92
14204;BME280;7185;51.854;6.622;2023-02-26T05:06:39;101806.34;;;-0.42;89.12
14204;BME280;7185;51.854;6.622;2023-02-26T05:09:11;101812.19;;;-0.46;89.96
14204;BME280;7185;51.854;6.622;2023-02-26T05:11:42;101821.66;;;-0.45;88.15
14204;BME280;7185;51.854;6.622;2023-02-26T05:14:14;101826.13;;;-0.60;89.82
14204;BME280;7185;51.854;6.622;2023-02-26T05:16:45;101822.69;;;-0.59;89.13
14204;BME280;7185;51.854;6.622;2023-02-26T05:19:17;101817.41;;;-0.62;89.44
14204;BME280;7185;51.854;6.622;2023-02-26T05:21:50;101826.53;;;-0.69;89.66
14204;BME280;7185;51.854;6.622;2023-02-26T05:24:21;101825.28;;;-0.59;89.45
14204;BME280;7185;51.854;6.622;2023-02-26T05:26:53;101833.16;;;-0.56;88.89
14204;BME280;7185;51.854;6.622;2023-02-26T05:29:25;101833.91;;;-0.59;88.31
14204;BME280;7185;51.854;6.622;2023-02-26T05:31:56;101843.03;;;-0.66;88.32
14204;BME280;7185;51.854;6.622;2023-02-26T05:34:28;101846.13;;;-0.73;88.22
14204;BME280;7185;51.854;6.622;2023-02-26T05:37:01;101851.25;;;-0.73;88.94
14204;BME280;7185;51.854;6.622;2023-02-26T05:39:32;101856.00;;;-0.64;88.58
14204;BME280;7185;51.854;6.622;2023-02-26T05:42:04;101854.97;;;-0.68;87.96
14204;BME280;7185;51.854;6.622;2023-02-26T05:44:35;101861.44;;;-0.76;88.21
14204;BME280;7185;51.854;6.622;2023-02-26T05:47:07;101858.25;;;-0.70;88.08
14204;BME280;7185;51.854;6.622;2023-02-26T05:49:39;101867.22;;;-0.80;88.27
14204;BME280;7185;51.854;6.622;2023-02-26T05:52:12;101870.72;;;-0.79;88.56
14204;BME280;7185;51.854;6.622;2023-02-26T05:54:43;101873.50;;;-0.75;88.14
14204;BME280;7185;51.854;6.622;2023-02-26T05:57:15;101877.53;;;-0.80;88.12
14204;BME280;7185;51.854;6.622;2023-02-26T05:59:46;101878.66;;;-0.75;87.70
14204;BME280;7185;51.854;6.622;2023-02-26T06:02:18;101881.44;;;-0.88;88.08
14204;BME280;7185;51.854;6.622;2023-02-26T06:04:49;101882.63;;;-0.82;87.84
14204;BME280;7185;51.854;6.622;2023-02-26T06:07:22;101893.66;;;-0.84;87.73
14204;BME280;7185;51.854;6.622;2023-02-26T06:09:54;101897.47;;;-0.94;87.40
14204;BME280;7185;51.854;6.622;2023-02-26T06:12:26;101901.88;;;-0.91;88.07
14204;BME280;7185;51.854;6.622;2023-02-26T06:14:57;101911.00;;;-0.80;87.95
14204;BME280;7185;51.854;6.622;2023-02-26T06:17:29;101914.09;;;-0.87;87.63
14204;BME280;7185;51.854;6.622;2023-02-26T06:20:00;101917.41;;;-0.90;87.91
14204;BME280;7185;51.854;6.622;2023-02-26T06:22:34;101926.31;;;-0.83;88.33
14204;BME280;7185;51.854;6.622;2023-02-26T06:25:06;101928.72;;;-0.86;88.09
14204;BME280;7185;51.854;6.622;2023-02-26T06:27:38;101925.41;;;-0.84;88.22
14204;BME280;7185;51.854;6.622;2023-02-26T06:30:11;101930.66;;;-0.82;87.49
14204;BME280;7185;51.854;6.622;2023-02-26T06:32:42;101933.09;;;-0.85;87.04
14204;BME280;7185;51.854;6.622;2023-02-26T06:35:14;101942.22;;;-0.92;87.48
14204;BME280;7185;51.854;6.622;2023-02-26T06:37:47;101945.84;;;-1.05;87.08
14204;BME280;7185;51.854;6.622;2023-02-26T06:40:19;101948.53;;;-0.85;87.18
14204;BME280;7185;51.854;6.622;2023-02-26T06:42:50;101953.31;;;-0.93;87.61
14204;BME280;7185;51.854;6.622;2023-02-26T06:45:22;101963.00;;;-0.87;87.10
14204;BME280;7185;51.854;6.622;2023-02-26T06:47:55;101967.47;;;-0.85;86.91
14204;BME280;7185;51.854;6.622;2023-02-26T06:50:26;101967.75;;;-0.78;87.19
14204;BME280;7185;51.854;6.622;2023-02-26T06:52:59;101977.22;;;-0.77;86.85
14204;BME280;7185;51.854;6.622;2023-02-26T06:55:31;101979.00;;;-0.76;86.41
14204;BME280;7185;51.854;6.622;2023-02-26T06:58:02;101982.66;;;-0.89;86.64
14204;BME280;7185;51.854;6.622;2023-02-26T07:00:34;101990.53;;;-0.86;87.42
14204;BME280;7185;51.854;6.622;2023-02-26T07:03:09;102002.97;;;-0.77;87.05
14204;BME280;7185;51.854;6.622;2023-02-26T07:05:43;102005.47;;;-0.62;86.98
14204;BME280;7185;51.854;6.622;2023-02-26T07:08:16;102005.44;;;-0.46;86.31
14204;BME280;7185;51.854;6.622;2023-02-26T07:10:48;102006.78;;;-0.18;86.26
14204;BME280;7185;51.854;6.622;2023-02-26T07:13:20;102014.41;;;0.17;84.77
14204;BME280;7185;51.854;6.622;2023-02-26T07:15:51;102009.16;;;0.71;83.51
14204;BME280;7185;51.854;6.622;2023-02-26T07:18:23;102011.66;;;1.08;81.20
14204;BME280;7185;51.854;6.622;2023-02-26T07:20:54;102018.47;;;1.47;78.84
14204;BME280;7185;51.854;6.622;2023-02-26T07:23:27;102013.44;;;2.15;76.29
14204;BME280;7185;51.854;6.622;2023-02-26T07:25:59;102020.59;;;2.68;72.81
14204;BME280;7185;51.854;6.622;2023-02-26T07:28:31;102020.47;;;3.38;71.24
14204;BME280;7185;51.854;6.622;2023-02-26T07:31:03;102022.25;;;3.92;68.72
14204;BME280;7185;51.854;6.622;2023-02-26T07:33:35;102027.22;;;4.11;65.98
14204;BME280;7185;51.854;6.622;2023-02-26T07:36:10;102030.03;;;4.78;62.11
14204;BME280;7185;51.854;6.622;2023-02-26T07:38:43;102031.75;;;5.08;59.63
14204;BME280;7185;51.854;6.622;2023-02-26T07:41:15;102038.28;;;4.94;59.26
14204;BME280;7185;51.854;6.622;2023-02-26T07:43:47;102038.31;;;5.61;58.76
14204;BME280;7185;51.854;6.622;2023-02-26T07:46:19;102040.16;;;5.65;56.88
14204;BME280;7185;51.854;6.622;2023-02-26T07:48:51;102050.28;;;6.23;55.26
14204;BME280;7185;51.854;6.622;2023-02-26T07:51:22;102052.34;;;6.40;54.47
14204;BME280;7185;51.854;6.622;2023-02-26T07:53:55;102045.72;;;6.54;52.46
14204;BME280;7185;51.854;6.622;2023-02-26T07:56:27;102049.00;;;7.31;51.97
14204;BME280;7185;51.854;6.622;2023-02-26T07:58:59;102051.63;;;7.81;49.17
14204;BME280;7185;51.854;6.622;2023-02-26T08:01:30;102045.09;;;8.08;49.24
14204;BME280;7185;51.854;6.622;2023-02-26T08:04:02;102046.34;;;8.35;47.72
14204;BME280;7185;51.854;6.622;2023-02-26T08:06:34;102050.25;;;8.05;48.99
14204;BME280;7185;51.854;6.622;2023-02-26T08:09:10;102055.69;;;8.19;48.70
14204;BME280;7185;51.854;6.622;2023-02-26T08:11:42;102059.53;;;9.11;46.43
14204;BME280;7185;51.854;6.622;2023-02-26T08:14:17;102057.81;;;9.14;45.06
14204;BME280;7185;51.854;6.622;2023-02-26T08:16:51;102064.56;;;9.78;44.80
14204;BME280;7185;51.854;6.622;2023-02-26T08:19:25;102073.25;;;9.74;45.20
14204;BME280;7185;51.854;6.622;2023-02-26T08:22:09;102069.16;;;10.07;43.36
14204;BME280;7185;51.854;6.622;2023-02-26T08:24:45;102070.19;;;10.34;41.24
14204;BME280;7185;51.854;6.622;2023-02-26T08:27:20;102075.22;;;10.00;42.57
14204;BME280;7185;51.854;6.622;2023-02-26T08:29:54;102068.38;;;10.22;41.28
14204;BME280;7185;51.854;6.622;2023-02-26T08:32:27;102084.88;;;10.07;41.88
14204;BME280;7185;51.854;6.622;2023-02-26T08:34:59;102087.53;;;10.13;41.74
14204;BME280;7185;51.854;6.622;2023-02-26T08:37:32;102089.72;;;10.82;41.28
14204;BME280;7185;51.854;6.622;2023-02-26T08:40:10;102102.06;;;10.96;40.62
14204;BME280;7185;51.854;6.622;2023-02-26T08:42:45;102094.34;;;11.72;39.10
14204;BME280;7185;51.854;6.622;2023-02-26T08:45:17;102097.03;;;12.14;38.61
14204;BME280;7185;51.854;6.622;2023-02-26T08:47:51;102099.56;;;12.66;37.93
14204;BME280;7185;51.854;6.622;2023-02-26T08:50:25;102096.00;;;12.83;36.21
14204;BME280;7185;51.854;6.622;2023-02-26T08:52:58;102101.13;;;13.20;35.92
14204;BME280;7185;51.854;6.622;2023-02-26T08:55:31;102099.47;;;12.91;36.05
14204;BME280;7185;51.854;6.622;2023-02-26T08:58:06;102110.16;;;12.04;36.86
14204;BME280;7185;51.854;6.622;2023-02-26T09:00:38;102109.25;;;11.84;37.51
14204;BME280;7185;51.854;6.622;2023-02-26T09:03:11;102118.91;;;11.83;37.80
14204;BME280;7185;51.854;6.622;2023-02-26T09:05:45;102113.63;;;11.64;37.84
14204;BME280;7185;51.854;6.622;2023-02-26T09:08:17;102129.41;;;11.75;38.20
14204;BME280;7185;51.854;6.622;2023-02-26T09:11:15;102136.22;;;11.10;38.38
14204;BME280;7185;51.854;6.622;2023-02-26T09:13:53;102145.03;;;11.26;37.86
14204;BME280;7185;51.854;6.622;2023-02-26T09:16:29;102148.69;;;11.88;36.57
14204;BME280;7185;51.854;6.622;2023-02-26T09:19:05;102146.75;;;11.21;38.79
14204;BME280;7185;51.854;6.622;2023-02-26T09:21:53;102132.94;;;12.07;37.01
14204;BME280;7185;51.854;6.622;2023-02-26T09:24:35;102132.09;;;12.06;36.29
14204;BME280;7185;51.854;6.622;2023-02-26T09:27:09;102146.97;;;12.40;36.29
14204;BME280;7185;51.854;6.622;2023-02-26T09:29:50;102143.41;;;12.73;35.99
14204;BME280;7185;51.854;6.622;2023-02-26T09:32:36;102149.50;;;12.88;35.11
14204;BME280;7185;51.854;6.622;2023-02-26T09:35:26;102152.81;;;13.49;34.14
14204;BME280;7185;51.854;6.622;2023-02-26T09:38:06;102156.56;;;12.67;34.43
14204;BME280;7185;51.854;6.622;2023-02-26T09:40:55;102169.78;;;12.04;35.38
14204;BME280;7185;51.854;6.622;2023-02-26T09:43:59;102160.94;;;11.78;35.80
14204;BME280;7185;51.854;6.622;2023-02-26T09:46:51;102165.31;;;11.70;37.10
14204;BME280;7185;51.854;6.622;2023-02-26T09:49:48;102170.53;;;11.66;36.78
14204;BME280;7185;51.854;6.622;2023-02-26T09:52:38;102165.38;;;12.44;35.06
14204;BME280;7185;51.854;6.622;2023-02-26T09:55:27;102173.72;;;10.86;37.57
14204;BME280;7185;51.854;6.622;2023-02-26T09:58:18;102184.28;;;10.95;37.62
14204;BME280;7185;51.854;6.622;2023-02-26T10:01:13;102184.91;;;10.58;37.68
14204;BME280;7185;51.854;6.622;2023-02-26T10:04:07;102182.06;;;10.35;37.38
14204;BME280;7185;51.854;6.622;2023-02-26T10:06:53;102193.03;;;9.91;39.06
14204;BME280;7185;51.854;6.622;2023-02-26T10:09:36;102185.75;;;10.56;37.69
14204;BME280;7185;51.854;6.622;2023-02-26T10:12:29;102196.34;;;10.68;36.96
14204;BME280;7185;51.854;6.622;2023-02-26T10:15:20;102186.06;;;11.02;36.85
14204;BME280;7185;51.854;6.622;2023-02-26T10:18:20;102187.84;;;11.12;36.09
14204;BME280;7185;51.854;6.622;2023-02-26T10:21:12;102186.06;;;11.05;36.06
14204;BME280;7185;51.854;6.622;2023-02-26T10:23:56;102199.72;;;10.50;37.31
14204;BME280;7185;51.854;6.622;2023-02-26T10:26:44;102201.66;;;10.77;36.12
14204;BME280;7185;51.854;6.622;2023-02-26T10:29:33;102206.84;;;10.71;36.46
14204;BME280;7185;51.854;6.622;2023-02-26T10:32:27;102207.63;;;10.59;36.18
14204;BME280;7185;51.854;6.622;2023-02-26T10:35:18;102201.13;;;11.43;35.20
14204;BME280;7185;51.854;6.622;2023-02-26T10:37:57;102208.22;;;11.68;34.81
14204;BME280;7185;51.854;6.622;2023-02-26T10:40:36;102209.22;;;12.39;33.37
14204;BME280;7185;51.854;6.622;2023-02-26T10:43:18;102205.72;;;12.25;32.81
14204;BME280;7185;51.854;6.622;2023-02-26T10:46:08;102205.69;;;12.37;32.20
14204;BME280;7185;51.854;6.622;2023-02-26T10:49:13;102226.22;;;10.90;33.84
14204;BME280;7185;51.854;6.622;2023-02-26T10:51:53;102229.78;;;9.97;35.06
14204;BME280;7185;51.854;6.622;2023-02-26T10:54:33;102216.50;;;9.11;36.23
14204;BME280;7185;51.854;6.622;2023-02-26T10:57:16;102219.22;;;9.17;36.54
14204;BME280;7185;51.854;6.622;2023-02-26T10:59:53;102218.84;;;9.56;36.60
14204;BME280;7185;51.854;6.622;2023-02-26T11:02:36;102210.66;;;10.07;34.67
14204;BME280;7185;51.854;6.622;2023-02-26T11:05:16;102226.94;;;10.69;34.08
14204;BME280;7185;51.854;6.622;2023-02-26T11:07:54;102234.28;;;11.18;35.56
14204;BME280;7185;51.854;6.622;2023-02-26T11:10:38;102221.50;;;12.50;32.68
14204;BME280;7185;51.854;6.622;2023-02-26T11:13:10;102229.22;;;13.35;30.58
14204;BME280;7185;51.854;6.622;2023-02-26T11:15:46;102221.47;;;12.06;31.03
14204;BME280;7185;51.854;6.622;2023-02-26T11:18:23;102238.66;;;11.21;33.25
14204;BME280;7185;51.854;6.622;2023-02-26T11:20:57;102239.03;;;10.45;34.54
14204;BME280;7185;51.854;6.622;2023-02-26T11:23:32;102233.31;;;11.02;32.78
14204;BME280;7185;51.854;6.622;2023-02-26T11:26:07;102224.97;;;12.05;32.59
14204;BME280;7185;51.854;6.622;2023-02-26T11:28:43;102219.72;;;12.86;30.75
14204;BME280;7185;51.854;6.622;2023-02-26T11:31:17;102209.56;;;14.06;30.58
14204;BME280;7185;51.854;6.622;2023-02-26T11:33:53;102213.59;;;14.53;29.35
14204;BME280;7185;51.854;6.622;2023-02-26T11:36:31;102212.72;;;14.51;28.94
14204;BME280;7185;51.854;6.622;2023-02-26T11:39:20;102222.09;;;14.86;28.17
14204;BME280;7185;51.854;6.622;2023-02-26T11:42:00;102214.50;;;14.50;27.65
14204;BME280;7185;51.854;6.622;2023-02-26T11:44:37;102223.97;;;14.73;27.61
14204;BME280;7185;51.854;6.622;2023-02-26T11:47:28;102228.06;;;15.05;28.38
14204;BME280;7185;51.854;6.622;2023-02-26T11:50:18;102216.81;;;15.61;27.25
14204;BME280;7185;51.854;6.622;2023-02-26T11:53:14;102203.94;;;16.00;26.27
14204;BME280;7185;51.854;6.622;2023-02-26T11:56:11;102219.09;;;15.19;27.27
14204;BME280;7185;51.854;6.622;2023-02-26T11:58:52;102206.97;;;16.33;27.54
14204;BME280;7185;51.854;6.622;2023-02-26T12:01:32;102207.31;;;16.12;27.85
14204;BME280;7185;51.854;6.622;2023-02-26T12:04:20;102207.56;;;16.49;25.61
14204;BME280;7185;51.854;6.622;2023-02-26T12:06:59;102213.31;;;15.60;27.05
14204;BME280;7185;51.854;6.622;2023-02-26T12:09:36;102205.88;;;15.89;26.97
14204;BME280;7185;51.854;6.622;2023-02-26T12:12:24;102203.56;;;16.75;26.31
14204;BME280;7185;51.854;6.622;2023-02-26T12:15:28;102205.19;;;15.73;26.74
14204;BME280;7185;51.854;6.622;2023-02-26T12:21:49;102205.59;;;16.61;26.36
14204;BME280;7185;51.854;6.622;2023-02-26T12:27:42;102197.06;;;19.18;24.44
14204;BME280;7185;51.854;6.622;2023-02-26T12:30:43;102189.91;;;19.50;22.69
14204;BME280;7185;51.854;6.622;2023-02-26T12:33:37;102190.69;;;19.53;22.16
14204;BME280;7185;51.854;6.622;2023-02-26T12:36:41;102193.94;;;18.70;23.91
14204;BME280;7185;51.854;6.622;2023-02-26T12:42:43;102190.63;;;18.62;23.53
14204;BME280;7185;51.854;6.622;2023-02-26T12:45:48;102191.47;;;18.97;23.20
14204;BME280;7185;51.854;6.622;2023-02-26T12:48:53;102184.22;;;20.19;21.04
14204;BME280;7185;51.854;6.622;2023-02-26T12:51:44;102184.22;;;20.19;21.04
14204;BME280;7185;51.854;6.622;2023-02-26T12:54:44;102182.06;;;20.82;21.99
14204;BME280;7185;51.854;6.622;2023-02-26T12:57:46;102187.03;;;19.57;21.75
14204;BME280;7185;51.854;6.622;2023-02-26T13:00:54;102194.56;;;19.43;21.92
14204;BME280;7185;51.854;6.622;2023-02-26T13:03:59;102189.84;;;20.10;21.87
14204;BME280;7185;51.854;6.622;2023-02-26T13:07:09;102190.56;;;19.88;21.21
14204;BME280;7185;51.854;6.622;2023-02-26T13:10:02;102187.16;;;19.81;21.85
14204;BME280;7185;51.854;6.622;2023-02-26T13:12:51;102174.72;;;20.62;21.71
14204;BME280;7185;51.854;6.622;2023-02-26T13:15:52;102182.22;;;19.99;21.34
14204;BME280;7185;51.854;6.622;2023-02-26T13:18:39;102177.94;;;19.65;22.01
14204;BME280;7185;51.854;6.622;2023-02-26T13:21:36;102172.53;;;19.96;21.26
14204;BME280;7185;51.854;6.622;2023-02-26T13:24:26;102170.38;;;20.60;20.87
14204;BME280;7185;51.854;6.622;2023-02-26T13:27:13;102158.94;;;21.07;20.70
14204;BME280;7185;51.854;6.622;2023-02-26T13:30:19;102168.91;;;20.26;21.37
14204;BME280;7185;51.854;6.622;2023-02-26T13:33:03;102168.66;;;18.21;22.95
14204;BME280;7185;51.854;6.622;2023-02-26T13:35:44;102154.53;;;19.48;22.25
14204;BME280;7185;51.854;6.622;2023-02-26T13:38:32;102153.66;;;19.75;21.38
14204;BME280;7185;51.854;6.622;2023-02-26T13:41:14;102150.38;;;20.48;21.19
14204;BME280;7185;51.854;6.622;2023-02-26T13:44:15;102156.50;;;20.25;20.79
14204;BME280;7185;51.854;6.622;2023-02-26T13:47:33;102153.94;;;19.95;21.21
14204;BME280;7185;51.854;6.622;2023-02-26T13:50:27;102159.00;;;20.29;22.17
14204;BME280;7185;51.854;6.622;2023-02-26T13:53:35;102155.16;;;18.96;22.87
14204;BME280;7185;51.854;6.622;2023-02-26T13:57:22;102157.47;;;19.08;22.65
14204;BME280;7185;51.854;6.622;2023-02-26T13:59:51;102160.56;;;18.60;23.20
14204;BME280;7185;51.854;6.622;2023-02-26T14:02:47;102158.59;;;17.99;24.00
14204;BME280;7185;51.854;6.622;2023-02-26T14:05:50;102157.91;;;18.60;23.98
14204;BME280;7185;51.854;6.622;2023-02-26T14:08:47;102150.53;;;19.33;22.93
14204;BME280;7185;51.854;6.622;2023-02-26T14:11:42;102151.69;;;19.24;22.40
14204;BME280;7185;51.854;6.622;2023-02-26T14:14:24;102142.34;;;20.49;20.98
14204;BME280;7185;51.854;6.622;2023-02-26T14:17:38;102155.13;;;21.14;20.83
14204;BME280;7185;51.854;6.622;2023-02-26T14:20:26;102160.13;;;19.38;22.26
14204;BME280;7185;51.854;6.622;2023-02-26T14:23:21;102156.00;;;17.16;23.93
14204;BME280;7185;51.854;6.622;2023-02-26T14:26:05;102154.56;;;18.19;22.95
14204;BME280;7185;51.854;6.622;2023-02-26T14:29:07;102164.44;;;18.79;22.87